sensor_id;sensor_type;location;lat;lon;timestamp;P1;durP1;ratioP1;P2;durP2;ratioP2
22320;SDS011;11328;53.928;18.522;2023-05-13T00:01:58;17.35;;;8.00;;
22320;SDS011;11328;53.928;18.522;2023-05-13T00:04:25;14.07;;;7.60;;
22320;SDS011;11328;53.928;18.522;2023-05-13T00:06:51;18.33;;;7.50;;
22320;SDS011;11328;53.928;18.522;2023-05-13T00:09:18;19.02;;;7.88;;
22320;SDS011;11328;53.928;18.522;2023-05-13T00:11:45;17.77;;;8.10;;
22320;SDS011;11328;53.928;18.522;2023-05-13T00:14:12;15.90;;;7.78;;
22320;SDS011;11328;53.928;18.522;2023-05-13T00:16:39;38.00;;;9.90;;
22320;SDS011;11328;53.928;18.522;2023-05-13T00:19:06;93.63;;;13.18;;
22320;SDS011;11328;53.928;18.522;2023-05-13T00:21:33;37.10;;;8.85;;
22320;SDS011;11328;53.928;18.522;2023-05-13T00:24:00;13.05;;;7.38;;
22320;SDS011;11328;53.928;18.522;2023-05-13T00:26:27;19.60;;;7.68;;
22320;SDS011;11328;53.928;18.522;2023-05-13T00:28:54;51.97;;;9.07;;
22320;SDS011;11328;53.928;18.522;2023-05-13T00:31:21;20.73;;;7.25;;
22320;SDS011;11328;53.928;18.522;2023-05-13T00:33:48;15.00;;;7.38;;
22320;SDS011;11328;53.928;18.522;2023-05-13T00:36:15;18.27;;;7.43;;
22320;SDS011;11328;53.928;18.522;2023-05-13T00:38:42;15.93;;;7.70;;
22320;SDS011;11328;53.928;18.522;2023-05-13T00:41:10;14.20;;;7.53;;
22320;SDS011;11328;53.928;18.522;2023-05-13T00:43:37;14.98;;;7.32;;
22320;SDS011;11328;53.928;18.522;2023-05-13T00:46:04;13.45;;;7.22;;
22320;SDS011;11328;53.928;18.522;2023-05-13T00:48:32;14.00;;;7.03;;
22320;SDS011;11328;53.928;18.522;2023-05-13T00:50:59;15.88;;;7.40;;
22320;SDS011;11328;53.928;18.522;2023-05-13T00:53:26;18.27;;;7.13;;
22320;SDS011;11328;53.928;18.522;2023-05-13T00:55:53;14.65;;;7.50;;
22320;SDS011;11328;53.928;18.522;2023-05-13T00:58:20;18.17;;;7.10;;
22320;SDS011;11328;53.928;18.522;2023-05-13T01:00:51;15.70;;;7.40;;
22320;SDS011;11328;53.928;18.522;2023-05-13T01:03:55;13.18;;;6.95;;
22320;SDS011;11328;53.928;18.522;2023-05-13T01:06:35;17.30;;;7.47;;
22320;SDS011;11328;53.928;18.522;2023-05-13T01:09:36;15.05;;;7.43;;
22320;SDS011;11328;53.928;18.522;2023-05-13T01:12:21;20.40;;;7.50;;
22320;SDS011;11328;53.928;18.522;2023-05-13T01:15:07;16.05;;;8.10;;
22320;SDS011;11328;53.928;18.522;2023-05-13T01:20:44;23.45;;;7.97;;
22320;SDS011;11328;53.928;18.522;2023-05-13T01:23:11;15.57;;;7.82;;
22320;SDS011;11328;53.928;18.522;2023-05-13T01:25:38;19.55;;;7.70;;
22320;SDS011;11328;53.928;18.522;2023-05-13T01:28:06;16.08;;;7.93;;
22320;SDS011;11328;53.928;18.522;2023-05-13T01:30:34;15.77;;;8.38;;
22320;SDS011;11328;53.928;18.522;2023-05-13T01:33:02;19.38;;;7.55;;
22320;SDS011;11328;53.928;18.522;2023-05-13T01:35:29;13.07;;;7.85;;
22320;SDS011;11328;53.928;18.522;2023-05-13T01:37:57;16.80;;;8.25;;
22320;SDS011;11328;53.928;18.522;2023-05-13T01:40:26;18.05;;;8.10;;
22320;SDS011;11328;53.928;18.522;2023-05-13T01:42:58;14.00;;;8.70;;
22320;SDS011;11328;53.928;18.522;2023-05-13T01:45:29;15.20;;;8.70;;
22320;SDS011;11328;53.928;18.522;2023-05-13T01:47:56;19.90;;;7.90;;
22320;SDS011;11328;53.928;18.522;2023-05-13T01:50:23;15.40;;;8.35;;
22320;SDS011;11328;53.928;18.522;2023-05-13T01:52:51;20.13;;;8.98;;
22320;SDS011;11328;53.928;18.522;2023-05-13T01:55:18;15.70;;;8.73;;
22320;SDS011;11328;53.928;18.522;2023-05-13T01:57:45;23.08;;;8.40;;
22320;SDS011;11328;53.928;18.522;2023-05-13T02:00:12;15.77;;;8.48;;
22320;SDS011;11328;53.928;18.522;2023-05-13T02:02:39;14.73;;;8.15;;
22320;SDS011;11328;53.928;18.522;2023-05-13T02:05:07;12.95;;;8.38;;
22320;SDS011;11328;53.928;18.522;2023-05-13T02:07:34;24.77;;;8.20;;
22320;SDS011;11328;53.928;18.522;2023-05-13T02:10:01;15.82;;;8.10;;
22320;SDS011;11328;53.928;18.522;2023-05-13T02:12:28;18.25;;;8.75;;
22320;SDS011;11328;53.928;18.522;2023-05-13T02:14:55;17.52;;;8.57;;
22320;SDS011;11328;53.928;18.522;2023-05-13T02:17:22;17.80;;;8.95;;
22320;SDS011;11328;53.928;18.522;2023-05-13T02:19:49;18.90;;;8.50;;
22320;SDS011;11328;53.928;18.522;2023-05-13T02:22:15;17.73;;;8.60;;
22320;SDS011;11328;53.928;18.522;2023-05-13T02:24:42;17.55;;;8.55;;
22320;SDS011;11328;53.928;18.522;2023-05-13T02:27:09;16.40;;;8.50;;
22320;SDS011;11328;53.928;18.522;2023-05-13T02:29:38;17.55;;;9.15;;
22320;SDS011;11328;53.928;18.522;2023-05-13T02:32:05;15.68;;;9.00;;
22320;SDS011;11328;53.928;18.522;2023-05-13T02:34:32;17.40;;;8.60;;
22320;SDS011;11328;53.928;18.522;2023-05-13T02:36:59;19.73;;;8.30;;
22320;SDS011;11328;53.928;18.522;2023-05-13T02:39:28;19.15;;;8.30;;
22320;SDS011;11328;53.928;18.522;2023-05-13T02:41:55;20.05;;;8.60;;
22320;SDS011;11328;53.928;18.522;2023-05-13T02:44:23;18.08;;;8.15;;
22320;SDS011;11328;53.928;18.522;2023-05-13T02:46:49;16.42;;;7.82;;
22320;SDS011;11328;53.928;18.522;2023-05-13T02:49:16;14.75;;;7.63;;
22320;SDS011;11328;53.928;18.522;2023-05-13T02:51:43;15.80;;;7.43;;
22320;SDS011;11328;53.928;18.522;2023-05-13T02:54:10;16.58;;;7.65;;
22320;SDS011;11328;53.928;18.522;2023-05-13T02:56:37;16.92;;;7.95;;
22320;SDS011;11328;53.928;18.522;2023-05-13T02:59:04;22.33;;;9.02;;
22320;SDS011;11328;53.928;18.522;2023-05-13T03:01:31;17.50;;;8.55;;
22320;SDS011;11328;53.928;18.522;2023-05-13T03:03:58;18.95;;;9.20;;
22320;SDS011;11328;53.928;18.522;2023-05-13T03:06:24;16.52;;;8.43;;
22320;SDS011;11328;53.928;18.522;2023-05-13T03:08:52;15.52;;;8.25;;
22320;SDS011;11328;53.928;18.522;2023-05-13T03:11:18;16.10;;;7.30;;
22320;SDS011;11328;53.928;18.522;2023-05-13T03:13:46;11.55;;;7.18;;
22320;SDS011;11328;53.928;18.522;2023-05-13T03:16:13;16.20;;;7.88;;
22320;SDS011;11328;53.928;18.522;2023-05-13T03:18:40;13.65;;;7.80;;
22320;SDS011;11328;53.928;18.522;2023-05-13T03:21:07;13.98;;;7.63;;
22320;SDS011;11328;53.928;18.522;2023-05-13T03:23:34;17.38;;;7.90;;
22320;SDS011;11328;53.928;18.522;2023-05-13T03:26:01;14.60;;;7.45;;
22320;SDS011;11328;53.928;18.522;2023-05-13T03:28:28;11.68;;;7.47;;
22320;SDS011;11328;53.928;18.522;2023-05-13T03:30:54;25.38;;;8.13;;
22320;SDS011;11328;53.928;18.522;2023-05-13T03:33:21;35.38;;;8.30;;
22320;SDS011;11328;53.928;18.522;2023-05-13T03:35:48;19.40;;;7.55;;
22320;SDS011;11328;53.928;18.522;2023-05-13T03:38:15;32.40;;;7.85;;
22320;SDS011;11328;53.928;18.522;2023-05-13T03:40:42;13.25;;;6.70;;
22320;SDS011;11328;53.928;18.522;2023-05-13T03:43:09;18.95;;;7.82;;
22320;SDS011;11328;53.928;18.522;2023-05-13T03:45:36;15.48;;;7.25;;
22320;SDS011;11328;53.928;18.522;2023-05-13T03:48:03;12.38;;;7.00;;
22320;SDS011;11328;53.928;18.522;2023-05-13T03:50:30;15.05;;;6.50;;
22320;SDS011;11328;53.928;18.522;2023-05-13T03:52:57;13.13;;;7.32;;
22320;SDS011;11328;53.928;18.522;2023-05-13T03:55:24;19.52;;;7.10;;
22320;SDS011;11328;53.928;18.522;2023-05-13T03:57:51;13.95;;;6.63;;
22320;SDS011;11328;53.928;18.522;2023-05-13T04:00:18;12.98;;;6.97;;
22320;SDS011;11328;53.928;18.522;2023-05-13T04:02:45;14.25;;;6.72;;
22320;SDS011;11328;53.928;18.522;2023-05-13T04:05:12;12.65;;;7.22;;
22320;SDS011;11328;53.928;18.522;2023-05-13T04:07:39;17.65;;;6.82;;
22320;SDS011;11328;53.928;18.522;2023-05-13T04:10:06;11.82;;;6.95;;
22320;SDS011;11328;53.928;18.522;2023-05-13T04:12:43;16.73;;;7.20;;
22320;SDS011;11328;53.928;18.522;2023-05-13T04:15:10;26.80;;;12.48;;
22320;SDS011;11328;53.928;18.522;2023-05-13T04:17:36;41.63;;;31.38;;
22320;SDS011;11328;53.928;18.522;2023-05-13T04:20:03;19.15;;;13.02;;
22320;SDS011;11328;53.928;18.522;2023-05-13T04:22:31;14.98;;;7.80;;
22320;SDS011;11328;53.928;18.522;2023-05-13T04:24:59;15.75;;;7.63;;
22320;SDS011;11328;53.928;18.522;2023-05-13T04:27:26;13.10;;;7.70;;
22320;SDS011;11328;53.928;18.522;2023-05-13T04:29:53;17.98;;;8.63;;
22320;SDS011;11328;53.928;18.522;2023-05-13T04:32:20;16.15;;;7.68;;
22320;SDS011;11328;53.928;18.522;2023-05-13T04:34:47;16.75;;;7.65;;
22320;SDS011;11328;53.928;18.522;2023-05-13T04:37:14;17.08;;;7.50;;
22320;SDS011;11328;53.928;18.522;2023-05-13T04:39:43;17.33;;;7.22;;
22320;SDS011;11328;53.928;18.522;2023-05-13T04:42:12;13.82;;;7.57;;
22320;SDS011;11328;53.928;18.522;2023-05-13T04:44:40;15.40;;;6.95;;
22320;SDS011;11328;53.928;18.522;2023-05-13T04:47:07;29.75;;;7.60;;
22320;SDS011;11328;53.928;18.522;2023-05-13T04:49:34;16.17;;;7.43;;
22320;SDS011;11328;53.928;18.522;2023-05-13T04:52:02;13.20;;;6.50;;
22320;SDS011;11328;53.928;18.522;2023-05-13T04:54:31;21.75;;;6.80;;
22320;SDS011;11328;53.928;18.522;2023-05-13T04:57:00;12.25;;;6.70;;
22320;SDS011;11328;53.928;18.522;2023-05-13T04:59:28;12.88;;;6.75;;
22320;SDS011;11328;53.928;18.522;2023-05-13T05:01:55;11.82;;;6.55;;
22320;SDS011;11328;53.928;18.522;2023-05-13T05:04:23;14.02;;;7.05;;
22320;SDS011;11328;53.928;18.522;2023-05-13T05:06:50;25.63;;;7.25;;
22320;SDS011;11328;53.928;18.522;2023-05-13T05:09:17;11.95;;;6.78;;
22320;SDS011;11328;53.928;18.522;2023-05-13T05:11:44;16.05;;;7.57;;
22320;SDS011;11328;53.928;18.522;2023-05-13T05:14:11;16.50;;;6.70;;
22320;SDS011;11328;53.928;18.522;2023-05-13T05:16:38;21.30;;;6.65;;
22320;SDS011;11328;53.928;18.522;2023-05-13T05:19:04;18.63;;;7.18;;
22320;SDS011;11328;53.928;18.522;2023-05-13T05:21:31;16.27;;;6.72;;
22320;SDS011;11328;53.928;18.522;2023-05-13T05:23:58;18.00;;;6.63;;
22320;SDS011;11328;53.928;18.522;2023-05-13T05:26:27;12.10;;;6.35;;
22320;SDS011;11328;53.928;18.522;2023-05-13T05:28:53;14.75;;;6.35;;
22320;SDS011;11328;53.928;18.522;2023-05-13T05:31:20;15.57;;;6.15;;
22320;SDS011;11328;53.928;18.522;2023-05-13T05:33:47;12.32;;;6.10;;
22320;SDS011;11328;53.928;18.522;2023-05-13T05:36:14;31.00;;;6.50;;
22320;SDS011;11328;53.928;18.522;2023-05-13T05:38:41;15.90;;;6.40;;
22320;SDS011;11328;53.928;18.522;2023-05-13T05:41:08;17.50;;;5.72;;
22320;SDS011;11328;53.928;18.522;2023-05-13T05:43:35;11.32;;;6.05;;
22320;SDS011;11328;53.928;18.522;2023-05-13T05:46:02;12.63;;;5.28;;
22320;SDS011;11328;53.928;18.522;2023-05-13T05:48:30;26.83;;;6.00;;
22320;SDS011;11328;53.928;18.522;2023-05-13T05:50:59;12.27;;;5.82;;
22320;SDS011;11328;53.928;18.522;2023-05-13T05:53:26;10.55;;;5.25;;
22320;SDS011;11328;53.928;18.522;2023-05-13T05:55:53;13.27;;;5.20;;
22320;SDS011;11328;53.928;18.522;2023-05-13T05:58:20;13.88;;;5.40;;
22320;SDS011;11328;53.928;18.522;2023-05-13T06:00:47;34.88;;;6.38;;
22320;SDS011;11328;53.928;18.522;2023-05-13T06:03:14;11.50;;;4.88;;
22320;SDS011;11328;53.928;18.522;2023-05-13T06:05:41;18.08;;;6.10;;
22320;SDS011;11328;53.928;18.522;2023-05-13T06:08:08;9.52;;;5.20;;
22320;SDS011;11328;53.928;18.522;2023-05-13T06:10:35;11.32;;;5.43;;
22320;SDS011;11328;53.928;18.522;2023-05-13T06:13:03;14.23;;;5.10;;
22320;SDS011;11328;53.928;18.522;2023-05-13T06:15:30;17.88;;;5.43;;
22320;SDS011;11328;53.928;18.522;2023-05-13T06:17:57;10.68;;;5.25;;
22320;SDS011;11328;53.928;18.522;2023-05-13T06:20:25;14.40;;;5.18;;
22320;SDS011;11328;53.928;18.522;2023-05-13T06:22:55;14.07;;;5.13;;
22320;SDS011;11328;53.928;18.522;2023-05-13T06:25:21;12.63;;;5.50;;
22320;SDS011;11328;53.928;18.522;2023-05-13T06:27:48;13.30;;;5.35;;
22320;SDS011;11328;53.928;18.522;2023-05-13T06:30:15;67.88;;;8.88;;
22320;SDS011;11328;53.928;18.522;2023-05-13T06:32:42;12.50;;;5.75;;
22320;SDS011;11328;53.928;18.522;2023-05-13T06:35:22;27.08;;;6.97;;
22320;SDS011;11328;53.928;18.522;2023-05-13T06:37:49;14.75;;;5.85;;
22320;SDS011;11328;53.928;18.522;2023-05-13T06:40:16;12.32;;;5.40;;
22320;SDS011;11328;53.928;18.522;2023-05-13T06:42:43;14.23;;;5.75;;
22320;SDS011;11328;53.928;18.522;2023-05-13T06:45:10;12.77;;;5.60;;
22320;SDS011;11328;53.928;18.522;2023-05-13T06:47:37;17.98;;;6.47;;
22320;SDS011;11328;53.928;18.522;2023-05-13T06:50:04;31.17;;;6.38;;
22320;SDS011;11328;53.928;18.522;2023-05-13T06:52:31;16.42;;;5.63;;
22320;SDS011;11328;53.928;18.522;2023-05-13T06:54:58;11.93;;;5.00;;
22320;SDS011;11328;53.928;18.522;2023-05-13T06:57:25;221.70;;;15.02;;
22320;SDS011;11328;53.928;18.522;2023-05-13T07:00:07;14.25;;;5.03;;
22320;SDS011;11328;53.928;18.522;2023-05-13T07:02:34;109.90;;;8.52;;
22320;SDS011;11328;53.928;18.522;2023-05-13T07:05:02;46.20;;;6.57;;
22320;SDS011;11328;53.928;18.522;2023-05-13T07:07:29;12.05;;;5.25;;
22320;SDS011;11328;53.928;18.522;2023-05-13T07:09:56;14.05;;;5.10;;
22320;SDS011;11328;53.928;18.522;2023-05-13T07:12:22;13.13;;;4.78;;
22320;SDS011;11328;53.928;18.522;2023-05-13T07:14:50;9.52;;;4.60;;
22320;SDS011;11328;53.928;18.522;2023-05-13T07:17:17;18.40;;;4.65;;
22320;SDS011;11328;53.928;18.522;2023-05-13T07:19:44;14.27;;;4.55;;
22320;SDS011;11328;53.928;18.522;2023-05-13T07:22:11;14.00;;;4.85;;
22320;SDS011;11328;53.928;18.522;2023-05-13T07:24:38;12.98;;;4.72;;
22320;SDS011;11328;53.928;18.522;2023-05-13T07:27:06;11.15;;;4.55;;
22320;SDS011;11328;53.928;18.522;2023-05-13T07:29:33;15.05;;;4.90;;
22320;SDS011;11328;53.928;18.522;2023-05-13T07:32:03;14.05;;;4.90;;
22320;SDS011;11328;53.928;18.522;2023-05-13T07:34:31;11.32;;;3.97;;
22320;SDS011;11328;53.928;18.522;2023-05-13T07:36:58;11.50;;;4.70;;
22320;SDS011;11328;53.928;18.522;2023-05-13T07:39:26;12.25;;;4.47;;
22320;SDS011;11328;53.928;18.522;2023-05-13T07:41:52;12.80;;;4.03;;
22320;SDS011;11328;53.928;18.522;2023-05-13T07:44:22;9.20;;;4.03;;
22320;SDS011;11328;53.928;18.522;2023-05-13T07:46:49;10.30;;;4.30;;
22320;SDS011;11328;53.928;18.522;2023-05-13T07:49:19;10.57;;;4.18;;
22320;SDS011;11328;53.928;18.522;2023-05-13T07:51:46;12.15;;;4.47;;
22320;SDS011;11328;53.928;18.522;2023-05-13T07:54:13;10.48;;;3.72;;
22320;SDS011;11328;53.928;18.522;2023-05-13T07:56:40;267.45;;;15.20;;
22320;SDS011;11328;53.928;18.522;2023-05-13T07:59:09;15.43;;;4.25;;
22320;SDS011;11328;53.928;18.522;2023-05-13T08:01:36;11.00;;;4.18;;
22320;SDS011;11328;53.928;18.522;2023-05-13T08:04:03;9.65;;;4.03;;
22320;SDS011;11328;53.928;18.522;2023-05-13T08:06:30;12.77;;;3.90;;
22320;SDS011;11328;53.928;18.522;2023-05-13T08:08:58;9.55;;;3.45;;
22320;SDS011;11328;53.928;18.522;2023-05-13T08:11:25;10.57;;;3.70;;
22320;SDS011;11328;53.928;18.522;2023-05-13T08:13:53;12.40;;;3.53;;
22320;SDS011;11328;53.928;18.522;2023-05-13T08:16:20;11.63;;;4.03;;
22320;SDS011;11328;53.928;18.522;2023-05-13T08:18:48;9.73;;;3.30;;
22320;SDS011;11328;53.928;18.522;2023-05-13T08:21:15;25.92;;;4.60;;
22320;SDS011;11328;53.928;18.522;2023-05-13T08:23:41;11.98;;;3.90;;
22320;SDS011;11328;53.928;18.522;2023-05-13T08:26:11;9.80;;;3.60;;
22320;SDS011;11328;53.928;18.522;2023-05-13T08:28:39;9.85;;;3.55;;
22320;SDS011;11328;53.928;18.522;2023-05-13T08:31:09;11.65;;;4.50;;
22320;SDS011;11328;53.928;18.522;2023-05-13T08:33:38;11.07;;;3.90;;
22320;SDS011;11328;53.928;18.522;2023-05-13T08:36:08;11.32;;;3.58;;
22320;SDS011;11328;53.928;18.522;2023-05-13T08:38:35;22.20;;;4.72;;
22320;SDS011;11328;53.928;18.522;2023-05-13T08:41:02;13.50;;;5.13;;
22320;SDS011;11328;53.928;18.522;2023-05-13T08:43:31;13.82;;;4.10;;
22320;SDS011;11328;53.928;18.522;2023-05-13T08:46:02;11.82;;;3.97;;
22320;SDS011;11328;53.928;18.522;2023-05-13T08:48:34;16.20;;;4.10;;
22320;SDS011;11328;53.928;18.522;2023-05-13T08:51:03;14.82;;;4.20;;
22320;SDS011;11328;53.928;18.522;2023-05-13T08:53:31;27.65;;;4.28;;
22320;SDS011;11328;53.928;18.522;2023-05-13T08:56:01;19.17;;;4.30;;
22320;SDS011;11328;53.928;18.522;2023-05-13T08:58:28;13.77;;;4.30;;
22320;SDS011;11328;53.928;18.522;2023-05-13T09:00:55;11.20;;;3.72;;
22320;SDS011;11328;53.928;18.522;2023-05-13T09:03:23;13.10;;;3.65;;
22320;SDS011;11328;53.928;18.522;2023-05-13T09:05:54;9.32;;;3.50;;
22320;SDS011;11328;53.928;18.522;2023-05-13T09:08:21;21.02;;;4.18;;
22320;SDS011;11328;53.928;18.522;2023-05-13T09:10:48;11.60;;;4.10;;
22320;SDS011;11328;53.928;18.522;2023-05-13T09:13:15;9.05;;;3.50;;
22320;SDS011;11328;53.928;18.522;2023-05-13T09:15:43;53.40;;;6.03;;
22320;SDS011;11328;53.928;18.522;2023-05-13T09:18:11;10.20;;;3.63;;
22320;SDS011;11328;53.928;18.522;2023-05-13T09:20:44;10.77;;;4.18;;
22320;SDS011;11328;53.928;18.522;2023-05-13T09:23:11;8.02;;;3.28;;
22320;SDS011;11328;53.928;18.522;2023-05-13T09:25:39;17.85;;;3.60;;
22320;SDS011;11328;53.928;18.522;2023-05-13T09:28:06;17.38;;;3.90;;
22320;SDS011;11328;53.928;18.522;2023-05-13T09:30:34;10.10;;;3.70;;
22320;SDS011;11328;53.928;18.522;2023-05-13T09:35:49;10.98;;;3.75;;
22320;SDS011;11328;53.928;18.522;2023-05-13T09:38:19;12.07;;;3.53;;
22320;SDS011;11328;53.928;18.522;2023-05-13T09:40:54;8.87;;;3.40;;
22320;SDS011;11328;53.928;18.522;2023-05-13T09:43:24;8.43;;;3.58;;
22320;SDS011;11328;53.928;18.522;2023-05-13T09:46:02;9.43;;;3.40;;
22320;SDS011;11328;53.928;18.522;2023-05-13T09:48:31;12.05;;;3.35;;
22320;SDS011;11328;53.928;18.522;2023-05-13T09:50:59;8.88;;;3.50;;
22320;SDS011;11328;53.928;18.522;2023-05-13T09:53:26;10.40;;;3.67;;
22320;SDS011;11328;53.928;18.522;2023-05-13T09:55:55;10.23;;;3.40;;
22320;SDS011;11328;53.928;18.522;2023-05-13T09:58:24;7.72;;;3.10;;
22320;SDS011;11328;53.928;18.522;2023-05-13T10:00:56;10.27;;;3.40;;
22320;SDS011;11328;53.928;18.522;2023-05-13T10:03:23;14.85;;;3.03;;
22320;SDS011;11328;53.928;18.522;2023-05-13T10:05:53;8.93;;;3.30;;
22320;SDS011;11328;53.928;18.522;2023-05-13T10:08:25;20.38;;;3.92;;
22320;SDS011;11328;53.928;18.522;2023-05-13T10:10:53;15.63;;;3.55;;
22320;SDS011;11328;53.928;18.522;2023-05-13T10:13:22;11.20;;;3.30;;
22320;SDS011;11328;53.928;18.522;2023-05-13T10:15:51;7.93;;;3.00;;
22320;SDS011;11328;53.928;18.522;2023-05-13T10:18:21;16.85;;;2.92;;
22320;SDS011;11328;53.928;18.522;2023-05-13T10:20:49;8.18;;;3.28;;
22320;SDS011;11328;53.928;18.522;2023-05-13T10:23:19;26.75;;;4.00;;
22320;SDS011;11328;53.928;18.522;2023-05-13T10:25:49;11.70;;;3.42;;
22320;SDS011;11328;53.928;18.522;2023-05-13T10:28:18;7.18;;;3.00;;
22320;SDS011;11328;53.928;18.522;2023-05-13T10:30:45;15.48;;;3.58;;
22320;SDS011;11328;53.928;18.522;2023-05-13T10:33:19;8.75;;;2.97;;
22320;SDS011;11328;53.928;18.522;2023-05-13T10:35:49;8.93;;;3.28;;
22320;SDS011;11328;53.928;18.522;2023-05-13T10:44:28;13.73;;;3.53;;
22320;SDS011;11328;53.928;18.522;2023-05-13T10:46:58;17.70;;;8.52;;
22320;SDS011;11328;53.928;18.522;2023-05-13T10:49:31;14.30;;;5.90;;
22320;SDS011;11328;53.928;18.522;2023-05-13T10:52:06;39.25;;;4.40;;
22320;SDS011;11328;53.928;18.522;2023-05-13T10:54:40;17.67;;;3.45;;
22320;SDS011;11328;53.928;18.522;2023-05-13T10:57:08;9.52;;;3.00;;
22320;SDS011;11328;53.928;18.522;2023-05-13T10:59:36;6.32;;;2.80;;
22320;SDS011;11328;53.928;18.522;2023-05-13T11:02:43;8.35;;;2.72;;
22320;SDS011;11328;53.928;18.522;2023-05-13T11:05:17;11.75;;;2.65;;
22320;SDS011;11328;53.928;18.522;2023-05-13T11:07:55;9.07;;;2.80;;
22320;SDS011;11328;53.928;18.522;2023-05-13T11:10:26;11.00;;;2.97;;
22320;SDS011;11328;53.928;18.522;2023-05-13T11:16:04;11.13;;;2.80;;
22320;SDS011;11328;53.928;18.522;2023-05-13T11:18:33;12.50;;;3.08;;
22320;SDS011;11328;53.928;18.522;2023-05-13T11:21:01;59.28;;;5.43;;
22320;SDS011;11328;53.928;18.522;2023-05-13T11:23:33;10.47;;;3.33;;
22320;SDS011;11328;53.928;18.522;2023-05-13T11:26:22;7.30;;;2.92;;
22320;SDS011;11328;53.928;18.522;2023-05-13T11:28:56;9.38;;;3.10;;
22320;SDS011;11328;53.928;18.522;2023-05-13T11:31:40;8.35;;;2.80;;
22320;SDS011;11328;53.928;18.522;2023-05-13T11:34:16;10.65;;;2.80;;
22320;SDS011;11328;53.928;18.522;2023-05-13T11:36:56;7.50;;;2.63;;
22320;SDS011;11328;53.928;18.522;2023-05-13T11:39:39;11.15;;;2.60;;
22320;SDS011;11328;53.928;18.522;2023-05-13T11:42:07;7.10;;;2.70;;
22320;SDS011;11328;53.928;18.522;2023-05-13T11:44:36;9.07;;;2.78;;
22320;SDS011;11328;53.928;18.522;2023-05-13T11:47:12;6.10;;;3.00;;
22320;SDS011;11328;53.928;18.522;2023-05-13T11:49:40;11.38;;;3.05;;
22320;SDS011;11328;53.928;18.522;2023-05-13T11:52:16;11.45;;;3.20;;
22320;SDS011;11328;53.928;18.522;2023-05-13T11:54:49;24.05;;;3.38;;
22320;SDS011;11328;53.928;18.522;2023-05-13T11:57:19;6.97;;;3.10;;
22320;SDS011;11328;53.928;18.522;2023-05-13T12:00:01;9.07;;;2.80;;
22320;SDS011;11328;53.928;18.522;2023-05-13T12:02:35;6.53;;;2.60;;
22320;SDS011;11328;53.928;18.522;2023-05-13T12:05:08;6.95;;;2.90;;
22320;SDS011;11328;53.928;18.522;2023-05-13T12:07:37;9.85;;;2.80;;
22320;SDS011;11328;53.928;18.522;2023-05-13T12:10:08;10.63;;;2.90;;
22320;SDS011;11328;53.928;18.522;2023-05-13T12:12:36;7.22;;;3.03;;
22320;SDS011;11328;53.928;18.522;2023-05-13T12:15:06;7.30;;;2.70;;
22320;SDS011;11328;53.928;18.522;2023-05-13T12:17:36;13.40;;;3.03;;
22320;SDS011;11328;53.928;18.522;2023-05-13T12:30:52;28.65;;;3.95;;
22320;SDS011;11328;53.928;18.522;2023-05-13T12:33:22;7.43;;;2.90;;
22320;SDS011;11328;53.928;18.522;2023-05-13T12:35:51;9.18;;;3.17;;
22320;SDS011;11328;53.928;18.522;2023-05-13T12:38:21;8.25;;;3.00;;
22320;SDS011;11328;53.928;18.522;2023-05-13T12:40:50;6.00;;;3.00;;
22320;SDS011;11328;53.928;18.522;2023-05-13T12:43:18;173.32;;;12.35;;
22320;SDS011;11328;53.928;18.522;2023-05-13T12:45:46;18.35;;;3.08;;
22320;SDS011;11328;53.928;18.522;2023-05-13T12:48:21;8.88;;;3.00;;
22320;SDS011;11328;53.928;18.522;2023-05-13T12:50:50;11.63;;;2.92;;
22320;SDS011;11328;53.928;18.522;2023-05-13T12:53:16;7.32;;;3.03;;
22320;SDS011;11328;53.928;18.522;2023-05-13T12:55:43;33.65;;;4.10;;
22320;SDS011;11328;53.928;18.522;2023-05-13T12:58:10;10.20;;;2.65;;
22320;SDS011;11328;53.928;18.522;2023-05-13T13:00:39;7.72;;;2.65;;
22320;SDS011;11328;53.928;18.522;2023-05-13T13:03:07;9.30;;;3.22;;
22320;SDS011;11328;53.928;18.522;2023-05-13T13:05:34;12.45;;;2.90;;
22320;SDS011;11328;53.928;18.522;2023-05-13T13:08:01;9.73;;;2.97;;
22320;SDS011;11328;53.928;18.522;2023-05-13T13:10:32;10.65;;;3.40;;
22320;SDS011;11328;53.928;18.522;2023-05-13T13:13:00;16.73;;;4.55;;
22320;SDS011;11328;53.928;18.522;2023-05-13T13:15:27;11.48;;;3.60;;
22320;SDS011;11328;53.928;18.522;2023-05-13T13:17:53;8.23;;;2.60;;
22320;SDS011;11328;53.928;18.522;2023-05-13T13:20:21;6.05;;;2.85;;
22320;SDS011;11328;53.928;18.522;2023-05-13T13:22:47;5.85;;;2.92;;
22320;SDS011;11328;53.928;18.522;2023-05-13T13:25:14;8.40;;;2.83;;
22320;SDS011;11328;53.928;18.522;2023-05-13T13:27:41;8.25;;;4.00;;
22320;SDS011;11328;53.928;18.522;2023-05-13T13:30:08;56.75;;;6.07;;
22320;SDS011;11328;53.928;18.522;2023-05-13T13:32:36;12.15;;;2.70;;
22320;SDS011;11328;53.928;18.522;2023-05-13T13:35:03;7.95;;;2.63;;
22320;SDS011;11328;53.928;18.522;2023-05-13T13:37:30;10.43;;;4.80;;
22320;SDS011;11328;53.928;18.522;2023-05-13T13:39:57;12.80;;;3.30;;
22320;SDS011;11328;53.928;18.522;2023-05-13T13:42:24;16.95;;;3.95;;
22320;SDS011;11328;53.928;18.522;2023-05-13T13:45:09;14.07;;;3.85;;
22320;SDS011;11328;53.928;18.522;2023-05-13T13:47:36;21.73;;;3.70;;
22320;SDS011;11328;53.928;18.522;2023-05-13T13:50:04;20.15;;;3.85;;
22320;SDS011;11328;53.928;18.522;2023-05-13T13:52:31;9.68;;;3.13;;
22320;SDS011;11328;53.928;18.522;2023-05-13T13:54:58;14.73;;;3.40;;
22320;SDS011;11328;53.928;18.522;2023-05-13T13:57:25;7.80;;;3.33;;
22320;SDS011;11328;53.928;18.522;2023-05-13T13:59:52;18.05;;;3.53;;
22320;SDS011;11328;53.928;18.522;2023-05-13T14:02:19;9.40;;;3.50;;
22320;SDS011;11328;53.928;18.522;2023-05-13T14:04:47;17.77;;;3.50;;
22320;SDS011;11328;53.928;18.522;2023-05-13T14:07:13;12.52;;;3.25;;
22320;SDS011;11328;53.928;18.522;2023-05-13T14:09:40;10.50;;;3.10;;
22320;SDS011;11328;53.928;18.522;2023-05-13T14:12:07;15.07;;;3.42;;
22320;SDS011;11328;53.928;18.522;2023-05-13T14:14:34;12.30;;;3.17;;
22320;SDS011;11328;53.928;18.522;2023-05-13T14:17:01;12.43;;;3.47;;
22320;SDS011;11328;53.928;18.522;2023-05-13T14:19:28;7.93;;;2.83;;
22320;SDS011;11328;53.928;18.522;2023-05-13T14:21:55;9.32;;;3.22;;
22320;SDS011;11328;53.928;18.522;2023-05-13T14:24:22;19.23;;;3.58;;
22320;SDS011;11328;53.928;18.522;2023-05-13T14:26:49;10.13;;;2.90;;
22320;SDS011;11328;53.928;18.522;2023-05-13T14:29:16;12.60;;;3.50;;
22320;SDS011;11328;53.928;18.522;2023-05-13T14:31:43;13.52;;;3.40;;
22320;SDS011;11328;53.928;18.522;2023-05-13T14:34:10;22.33;;;12.45;;
22320;SDS011;11328;53.928;18.522;2023-05-13T14:36:37;21.52;;;10.10;;
22320;SDS011;11328;53.928;18.522;2023-05-13T14:39:04;14.23;;;5.10;;
22320;SDS011;11328;53.928;18.522;2023-05-13T14:41:31;15.57;;;5.00;;
22320;SDS011;11328;53.928;18.522;2023-05-13T14:43:58;14.38;;;5.78;;
22320;SDS011;11328;53.928;18.522;2023-05-13T14:46:26;13.40;;;5.65;;
22320;SDS011;11328;53.928;18.522;2023-05-13T14:48:53;14.27;;;4.80;;
22320;SDS011;11328;53.928;18.522;2023-05-13T14:51:20;14.52;;;4.53;;
22320;SDS011;11328;53.928;18.522;2023-05-13T14:53:47;38.63;;;5.75;;
22320;SDS011;11328;53.928;18.522;2023-05-13T14:56:13;23.27;;;6.03;;
22320;SDS011;11328;53.928;18.522;2023-05-13T14:58:40;14.57;;;4.95;;